sensor_id;sensor_type;location;lat;lon;timestamp;pressure;altitude;pressure_sealevel;temperature;humidity
72395;BME280;60384;48.152;11.614;2023-10-09T00:01:28;96237.66;;;17.64;44.09
72395;BME280;60384;48.152;11.614;2023-10-09T00:04:31;96242.41;;;17.62;44.07
72395;BME280;60384;48.152;11.614;2023-10-09T00:07:36;96237.22;;;17.60;43.84
72395;BME280;60384;48.152;11.614;2023-10-09T00:10:40;96240.97;;;17.59;43.95
72395;BME280;60384;48.152;11.614;2023-10-09T00:13:53;96235.78;;;17.58;44.06
72395;BME280;60384;48.152;11.614;2023-10-09T00:16:57;96232.28;;;17.57;43.92
72395;BME280;60384;48.152;11.614;2023-10-09T00:20:09;96226.88;;;17.57;43.85
72395;BME280;60384;48.152;11.614;2023-10-09T00:23:18;96218.81;;;17.57;43.90
72395;BME280;60384;48.152;11.614;2023-10-09T00:26:21;96198.91;;;17.58;44.06
72395;BME280;60384;48.152;11.614;2023-10-09T00:29:25;96197.88;;;17.59;44.19
72395;BME280;60384;48.152;11.614;2023-10-09T00:32:34;96198.91;;;17.58;43.88
72395;BME280;60384;48.152;11.614;2023-10-09T00:35:38;96196.44;;;17.57;44.30
72395;BME280;60384;48.152;11.614;2023-10-09T00:38:47;96181.56;;;17.54;43.92
72395;BME280;60384;48.152;11.614;2023-10-09T00:41:53;96180.75;;;17.54;43.83
72395;BME280;60384;48.152;11.614;2023-10-09T00:44:55;96188.59;;;17.55;44.47
72395;BME280;60384;48.152;11.614;2023-10-09T00:47:57;96176.19;;;17.54;44.13
72395;BME280;60384;48.152;11.614;2023-10-09T00:51:01;96169.16;;;17.53;44.14
72395;BME280;60384;48.152;11.614;2023-10-09T00:54:16;96173.09;;;17.51;44.23
72395;BME280;60384;48.152;11.614;2023-10-09T00:57:21;96157.16;;;17.49;44.13
72395;BME280;60384;48.152;11.614;2023-10-09T01:00:25;96160.47;;;17.51;44.09
72395;BME280;60384;48.152;11.614;2023-10-09T01:03:45;96160.47;;;17.51;44.44
72395;BME280;60384;48.152;11.614;2023-10-09T01:06:51;96147.00;;;17.51;44.24
72395;BME280;60384;48.152;11.614;2023-10-09T01:10:10;96156.13;;;17.50;44.04
72395;BME280;60384;48.152;11.614;2023-10-09T01:13:34;96143.69;;;17.49;44.37
72395;BME280;60384;48.152;11.614;2023-10-09T01:16:45;96148.25;;;17.49;44.31
72395;BME280;60384;48.152;11.614;2023-10-09T01:19:48;96149.91;;;17.50;44.38
72395;BME280;60384;48.152;11.614;2023-10-09T01:22:54;96142.88;;;17.49;44.26
72395;BME280;60384;48.152;11.614;2023-10-09T01:25:57;96142.66;;;17.50;44.21
72395;BME280;60384;48.152;11.614;2023-10-09T01:28:59;96137.28;;;17.50;44.21
72395;BME280;60384;48.152;11.614;2023-10-09T01:32:02;96138.31;;;17.49;44.23
72395;BME280;60384;48.152;11.614;2023-10-09T01:35:04;96135.63;;;17.49;44.13
72395;BME280;60384;48.152;11.614;2023-10-09T01:38:15;96137.28;;;17.50;44.15
72395;BME280;60384;48.152;11.614;2023-10-09T01:41:18;96133.75;;;17.50;44.20
72395;BME280;60384;48.152;11.614;2023-10-09T01:44:20;96138.91;;;17.51;44.28
72395;BME280;60384;48.152;11.614;2023-10-09T01:47:22;96129.81;;;17.52;44.20
72395;BME280;60384;48.152;11.614;2023-10-09T01:50:26;96130.63;;;17.53;44.08
72395;BME280;60384;48.152;11.614;2023-10-09T01:53:31;96122.75;;;17.51;44.40
72395;BME280;60384;48.152;11.614;2023-10-09T01:56:34;96121.13;;;17.50;44.57
72395;BME280;60384;48.152;11.614;2023-10-09T01:59:38;96116.56;;;17.51;44.40
72395;BME280;60384;48.152;11.614;2023-10-09T02:02:44;96119.47;;;17.49;44.32
72395;BME280;60384;48.152;11.614;2023-10-09T02:05:45;96109.53;;;17.50;44.36
72395;BME280;60384;48.152;11.614;2023-10-09T02:08:47;96108.91;;;17.48;44.30
72395;BME280;60384;48.152;11.614;2023-10-09T02:11:51;96102.91;;;17.46;44.50
72395;BME280;60384;48.152;11.614;2023-10-09T02:14:52;96101.88;;;17.47;44.53
72395;BME280;60384;48.152;11.614;2023-10-09T02:17:56;96101.88;;;17.47;44.46
72395;BME280;60384;48.152;11.614;2023-10-09T02:21:05;96089.47;;;17.46;44.96
72395;BME280;60384;48.152;11.614;2023-10-09T02:24:16;96093.81;;;17.47;44.56
72395;BME280;60384;48.152;11.614;2023-10-09T02:27:29;96091.31;;;17.45;44.85
72395;BME280;60384;48.152;11.614;2023-10-09T02:30:54;96089.66;;;17.44;44.83
72395;BME280;60384;48.152;11.614;2023-10-09T02:34:00;96086.16;;;17.44;44.69
72395;BME280;60384;48.152;11.614;2023-10-09T02:37:06;96082.84;;;17.42;44.67
72395;BME280;60384;48.152;11.614;2023-10-09T02:40:11;96077.69;;;17.40;44.88
72395;BME280;60384;48.152;11.614;2023-10-09T02:43:24;96076.88;;;17.40;44.79
72395;BME280;60384;48.152;11.614;2023-10-09T02:46:27;96078.16;;;17.37;44.52
72395;BME280;60384;48.152;11.614;2023-10-09T02:49:31;96073.59;;;17.38;44.71
72395;BME280;60384;48.152;11.614;2023-10-09T02:52:34;96069.25;;;17.37;44.65
72395;BME280;60384;48.152;11.614;2023-10-09T02:55:40;96073.00;;;17.35;44.83
72395;BME280;60384;48.152;11.614;2023-10-09T02:58:54;96065.97;;;17.34;44.99
72395;BME280;60384;48.152;11.614;2023-10-09T03:02:06;96066.19;;;17.33;45.00
72395;BME280;60384;48.152;11.614;2023-10-09T03:05:07;96063.47;;;17.33;44.88
72395;BME280;60384;48.152;11.614;2023-10-09T03:08:12;96062.06;;;17.30;44.97
72395;BME280;60384;48.152;11.614;2023-10-09T03:11:14;96056.06;;;17.28;45.15
72395;BME280;60384;48.152;11.614;2023-10-09T03:14:17;96052.75;;;17.26;44.92
72395;BME280;60384;48.152;11.614;2023-10-09T03:17:20;96053.81;;;17.25;45.03
72395;BME280;60384;48.152;11.614;2023-10-09T03:20:23;96042.44;;;17.23;45.22
72395;BME280;60384;48.152;11.614;2023-10-09T03:23:25;96036.66;;;17.20;45.28
72395;BME280;60384;48.152;11.614;2023-10-09T03:26:26;96038.56;;;17.19;45.12
72395;BME280;60384;48.152;11.614;2023-10-09T03:29:29;96032.34;;;17.19;45.28
72395;BME280;60384;48.152;11.614;2023-10-09T03:32:31;96028.59;;;17.20;45.04
72395;BME280;60384;48.152;11.614;2023-10-09T03:35:33;96036.44;;;17.21;45.07
72395;BME280;60384;48.152;11.614;2023-10-09T03:38:36;96033.75;;;17.21;45.12
72395;BME280;60384;48.152;11.614;2023-10-09T03:41:38;96032.50;;;17.24;45.35
72395;BME280;60384;48.152;11.614;2023-10-09T03:44:43;96037.88;;;17.24;45.45
72395;BME280;60384;48.152;11.614;2023-10-09T03:47:50;96030.84;;;17.23;45.42
72395;BME280;60384;48.152;11.614;2023-10-09T03:50:56;96029.78;;;17.24;45.22
72395;BME280;60384;48.152;11.614;2023-10-09T03:54:08;96039.53;;;17.25;45.26
72395;BME280;60384;48.152;11.614;2023-10-09T03:57:10;96033.31;;;17.24;45.41
72395;BME280;60384;48.152;11.614;2023-10-09T04:00:16;96039.53;;;17.25;45.20
72395;BME280;60384;48.152;11.614;2023-10-09T04:03:28;96037.66;;;17.25;45.41
72395;BME280;60384;48.152;11.614;2023-10-09T04:06:30;96034.34;;;17.23;45.21
72395;BME280;60384;48.152;11.614;2023-10-09T04:09:32;96035.41;;;17.22;45.18
72395;BME280;60384;48.152;11.614;2023-10-09T04:12:40;96039.34;;;17.20;45.16
72395;BME280;60384;48.152;11.614;2023-10-09T04:15:43;96034.22;;;17.18;45.54
72395;BME280;60384;48.152;11.614;2023-10-09T04:18:45;96031.75;;;17.17;45.56
72395;BME280;60384;48.152;11.614;2023-10-09T04:21:47;96031.34;;;17.13;45.51
72395;BME280;60384;48.152;11.614;2023-10-09T04:24:48;96032.59;;;17.11;45.52
72395;BME280;60384;48.152;11.614;2023-10-09T04:27:52;96022.06;;;17.09;45.49
72395;BME280;60384;48.152;11.614;2023-10-09T04:31:01;96024.38;;;17.06;45.57
72395;BME280;60384;48.152;11.614;2023-10-09T04:34:06;96026.66;;;17.02;45.43
72395;BME280;60384;48.152;11.614;2023-10-09T04:37:23;96030.84;;;16.98;45.54
72395;BME280;60384;48.152;11.614;2023-10-09T04:40:37;96026.72;;;16.95;45.78
72395;BME280;60384;48.152;11.614;2023-10-09T04:43:51;96026.94;;;16.94;45.57
72395;BME280;60384;48.152;11.614;2023-10-09T04:46:54;96023.44;;;16.93;45.62
72395;BME280;60384;48.152;11.614;2023-10-09T04:50:13;96022.59;;;16.93;45.72
72395;BME280;60384;48.152;11.614;2023-10-09T04:53:35;96026.94;;;16.94;45.81
72395;BME280;60384;48.152;11.614;2023-10-09T04:56:44;96025.09;;;16.94;45.80
72395;BME280;60384;48.152;11.614;2023-10-09T04:59:55;96030.47;;;16.94;45.78
72395;BME280;60384;48.152;11.614;2023-10-09T05:03:01;96025.91;;;16.95;45.84
72395;BME280;60384;48.152;11.614;2023-10-09T05:06:07;96023.44;;;16.93;45.66
72395;BME280;60384;48.152;11.614;2023-10-09T05:09:22;96018.88;;;16.94;45.83
72395;BME280;60384;48.152;11.614;2023-10-09T05:12:24;96024.25;;;16.94;45.75
72395;BME280;60384;48.152;11.614;2023-10-09T05:15:29;96025.09;;;16.94;45.70
72395;BME280;60384;48.152;11.614;2023-10-09T05:18:36;96024.88;;;16.96;45.64
72395;BME280;60384;48.152;11.614;2023-10-09T05:21:38;96035.84;;;16.94;45.67
72395;BME280;60384;48.152;11.614;2023-10-09T05:24:44;96040.41;;;16.94;46.00
72395;BME280;60384;48.152;11.614;2023-10-09T05:27:47;96042.25;;;16.93;45.63
72395;BME280;60384;48.152;11.614;2023-10-09T05:30:50;96046.59;;;16.94;45.82
72395;BME280;60384;48.152;11.614;2023-10-09T05:34:04;96045.78;;;16.94;45.90
72395;BME280;60384;48.152;11.614;2023-10-09T05:37:07;96052.81;;;16.95;45.84
72395;BME280;60384;48.152;11.614;2023-10-09T05:40:22;96056.75;;;16.92;45.79
72395;BME280;60384;48.152;11.614;2023-10-09T05:43:23;96059.88;;;16.89;46.01
72395;BME280;60384;48.152;11.614;2023-10-09T05:46:45;96056.56;;;16.87;45.72
72395;BME280;60384;48.152;11.614;2023-10-09T05:50:11;96054.72;;;16.88;45.76
72395;BME280;60384;48.152;11.614;2023-10-09T05:53:34;96053.66;;;16.89;45.68
72395;BME280;60384;48.152;11.614;2023-10-09T05:57:10;96045.59;;;16.89;45.86
72395;BME280;60384;48.152;11.614;2023-10-09T06:00:25;96052.03;;;16.88;45.79
72395;BME280;60384;48.152;11.614;2023-10-09T06:03:44;96055.53;;;16.88;46.09
72395;BME280;60384;48.152;11.614;2023-10-09T06:06:56;96054.50;;;16.89;45.89
72395;BME280;60384;48.152;11.614;2023-10-09T06:10:11;96054.06;;;16.92;45.88
72395;BME280;60384;48.152;11.614;2023-10-09T06:13:18;96052.59;;;16.96;45.88
72395;BME280;60384;48.152;11.614;2023-10-09T06:16:39;96059.78;;;17.02;45.82
72395;BME280;60384;48.152;11.614;2023-10-09T06:19:43;96059.94;;;17.08;45.69
72395;BME280;60384;48.152;11.614;2023-10-09T06:22:46;96062.38;;;17.16;45.68
72395;BME280;60384;48.152;11.614;2023-10-09T06:25:56;96065.00;;;17.22;45.49
72395;BME280;60384;48.152;11.614;2023-10-09T06:29:18;96061.22;;;17.30;45.53
72395;BME280;60384;48.152;11.614;2023-10-09T06:32:35;96064.44;;;17.39;45.56
72395;BME280;60384;48.152;11.614;2023-10-09T06:35:37;96059.63;;;17.47;45.40
72395;BME280;60384;48.152;11.614;2023-10-09T06:38:41;96062.63;;;17.57;45.32
72395;BME280;60384;48.152;11.614;2023-10-09T06:42:12;96065.69;;;17.67;45.49
72395;BME280;60384;48.152;11.614;2023-10-09T06:45:31;96066.19;;;17.76;45.52
72395;BME280;60384;48.152;11.614;2023-10-09T06:48:47;96063.00;;;17.86;45.20
72395;BME280;60384;48.152;11.614;2023-10-09T06:51:56;96069.72;;;17.95;45.46
72395;BME280;60384;48.152;11.614;2023-10-09T06:55:15;96066.75;;;18.03;45.20
72395;BME280;60384;48.152;11.614;2023-10-09T06:58:20;96065.38;;;18.12;45.20
72395;BME280;60384;48.152;11.614;2023-10-09T07:01:27;96066.13;;;18.19;45.06
72395;BME280;60384;48.152;11.614;2023-10-09T07:04:39;96063.59;;;18.24;45.00
72395;BME280;60384;48.152;11.614;2023-10-09T07:07:55;96068.66;;;18.32;45.11
72395;BME280;60384;48.152;11.614;2023-10-09T07:10:57;96079.38;;;18.39;45.22
72395;BME280;60384;48.152;11.614;2023-10-09T07:14:19;96079.88;;;18.48;45.01
72395;BME280;60384;48.152;11.614;2023-10-09T07:17:52;96076.06;;;18.55;45.07
72395;BME280;60384;48.152;11.614;2023-10-09T07:20:56;96079.53;;;18.62;44.94
72395;BME280;60384;48.152;11.614;2023-10-09T07:24:11;96090.22;;;18.69;44.59
72395;BME280;60384;48.152;11.614;2023-10-09T07:27:19;96087.22;;;18.77;44.67
72395;BME280;60384;48.152;11.614;2023-10-09T07:30:40;96094.97;;;18.85;44.37
72395;BME280;60384;48.152;11.614;2023-10-09T07:33:42;96098.41;;;18.92;44.84
72395;BME280;60384;48.152;11.614;2023-10-09T07:36:57;96092.66;;;19.00;44.33
72395;BME280;60384;48.152;11.614;2023-10-09T07:40:04;96092.94;;;19.11;44.34
72395;BME280;60384;48.152;11.614;2023-10-09T07:43:09;96096.03;;;19.26;44.54
72395;BME280;60384;48.152;11.614;2023-10-09T07:46:17;96080.19;;;19.41;44.19
72395;BME280;60384;48.152;11.614;2023-10-09T07:49:48;96085.06;;;19.62;43.82
72395;BME280;60384;48.152;11.614;2023-10-09T07:52:53;96089.31;;;19.82;43.61
72395;BME280;60384;48.152;11.614;2023-10-09T07:56:15;96090.47;;;19.97;43.64
72395;BME280;60384;48.152;11.614;2023-10-09T07:59:22;96092.69;;;20.12;43.66
72395;BME280;60384;48.152;11.614;2023-10-09T08:02:24;96094.28;;;20.25;43.83
72395;BME280;60384;48.152;11.614;2023-10-09T08:05:31;96097.84;;;20.37;43.67
72395;BME280;60384;48.152;11.614;2023-10-09T08:08:34;96097.00;;;20.48;43.54
72395;BME280;60384;48.152;11.614;2023-10-09T08:12:02;96094.81;;;20.62;42.99
72395;BME280;60384;48.152;11.614;2023-10-09T08:15:36;96110.31;;;20.78;43.31
72395;BME280;60384;48.152;11.614;2023-10-09T08:18:51;96107.81;;;20.88;43.14
72395;BME280;60384;48.152;11.614;2023-10-09T08:21:53;96114.72;;;20.96;42.79
72395;BME280;60384;48.152;11.614;2023-10-09T08:25:17;96112.69;;;21.03;42.83
72395;BME280;60384;48.152;11.614;2023-10-09T08:28:28;96116.06;;;21.10;42.89
72395;BME280;60384;48.152;11.614;2023-10-09T08:31:44;96117.53;;;21.18;42.65
72395;BME280;60384;48.152;11.614;2023-10-09T08:34:57;96109.66;;;21.28;42.65
72395;BME280;60384;48.152;11.614;2023-10-09T08:38:00;96115.22;;;21.38;42.45
72395;BME280;60384;48.152;11.614;2023-10-09T08:41:08;96111.38;;;21.51;42.36
72395;BME280;60384;48.152;11.614;2023-10-09T08:44:21;96110.72;;;21.60;42.26
72395;BME280;60384;48.152;11.614;2023-10-09T08:47:26;96106.28;;;21.71;42.17
72395;BME280;60384;48.152;11.614;2023-10-09T08:50:29;96106.94;;;21.78;42.41
72395;BME280;60384;48.152;11.614;2023-10-09T08:53:31;96105.16;;;21.83;42.21
72395;BME280;60384;48.152;11.614;2023-10-09T08:56:33;96110.63;;;21.89;42.29
72395;BME280;60384;48.152;11.614;2023-10-09T08:59:39;96112.03;;;21.91;42.47
72395;BME280;60384;48.152;11.614;2023-10-09T09:02:44;96110.72;;;21.94;42.23
72395;BME280;60384;48.152;11.614;2023-10-09T09:05:48;96110.22;;;21.97;42.01
72395;BME280;60384;48.152;11.614;2023-10-09T09:08:52;96110.59;;;22.00;42.47
72395;BME280;60384;48.152;11.614;2023-10-09T09:11:59;96105.22;;;22.05;42.19
72395;BME280;60384;48.152;11.614;2023-10-09T09:15:01;96110.97;;;22.09;42.16
72395;BME280;60384;48.152;11.614;2023-10-09T09:18:07;96116.22;;;22.15;42.19
72395;BME280;60384;48.152;11.614;2023-10-09T09:21:16;96126.06;;;22.22;41.99
72395;BME280;60384;48.152;11.614;2023-10-09T09:24:22;96122.94;;;22.30;42.39
72395;BME280;60384;48.152;11.614;2023-10-09T09:27:45;96129.59;;;22.39;41.89
72395;BME280;60384;48.152;11.614;2023-10-09T09:30:53;96123.44;;;22.48;42.04
72395;BME280;60384;48.152;11.614;2023-10-09T09:33:57;96128.47;;;22.57;42.05
72395;BME280;60384;48.152;11.614;2023-10-09T09:37:02;96127.19;;;22.64;41.64
72395;BME280;60384;48.152;11.614;2023-10-09T09:40:05;96129.47;;;22.72;41.51
72395;BME280;60384;48.152;11.614;2023-10-09T09:43:15;96131.50;;;22.82;41.84
72395;BME280;60384;48.152;11.614;2023-10-09T09:46:22;96119.63;;;22.88;41.60
72395;BME280;60384;48.152;11.614;2023-10-09T09:49:35;96118.06;;;22.92;41.78
72395;BME280;60384;48.152;11.614;2023-10-09T09:52:40;96121.31;;;22.94;41.58
72395;BME280;60384;48.152;11.614;2023-10-09T09:55:42;96122.69;;;22.97;41.35
72395;BME280;60384;48.152;11.614;2023-10-09T09:58:52;96128.44;;;23.00;41.67
72395;BME280;60384;48.152;11.614;2023-10-09T10:01:57;96125.47;;;23.02;41.26
72395;BME280;60384;48.152;11.614;2023-10-09T10:05:08;96140.44;;;23.04;41.40
72395;BME280;60384;48.152;11.614;2023-10-09T10:08:14;96137.22;;;23.07;41.30
72395;BME280;60384;48.152;11.614;2023-10-09T10:14:51;96132.66;;;23.13;41.31
72395;BME280;60384;48.152;11.614;2023-10-09T10:18:08;96134.09;;;23.20;41.15
72395;BME280;60384;48.152;11.614;2023-10-09T10:21:20;96139.63;;;23.31;40.87
72395;BME280;60384;48.152;11.614;2023-10-09T10:24:42;96133.53;;;23.45;41.00
72395;BME280;60384;48.152;11.614;2023-10-09T10:27:54;96127.72;;;23.59;40.41
72395;BME280;60384;48.152;11.614;2023-10-09T10:31:17;96137.84;;;23.68;40.73
72395;BME280;60384;48.152;11.614;2023-10-09T10:34:18;96131.63;;;23.73;40.25
72395;BME280;60384;48.152;11.614;2023-10-09T10:37:35;96126.19;;;23.73;40.09
72395;BME280;60384;48.152;11.614;2023-10-09T10:40:39;96128.13;;;23.77;40.18
72395;BME280;60384;48.152;11.614;2023-10-09T10:43:46;96126.25;;;23.83;40.18
72395;BME280;60384;48.152;11.614;2023-10-09T10:46:59;96134.97;;;23.85;40.21
72395;BME280;60384;48.152;11.614;2023-10-09T10:50:02;96125.22;;;23.89;40.16
72395;BME280;60384;48.152;11.614;2023-10-09T10:53:36;96116.81;;;23.91;40.21
72395;BME280;60384;48.152;11.614;2023-10-09T10:56:47;96120.09;;;23.93;40.31
72395;BME280;60384;48.152;11.614;2023-10-09T10:59:48;96120.66;;;23.95;40.30
72395;BME280;60384;48.152;11.614;2023-10-09T11:03:03;96126.97;;;24.00;39.91
72395;BME280;60384;48.152;11.614;2023-10-09T11:06:13;96120.19;;;24.08;39.75
72395;BME280;60384;48.152;11.614;2023-10-09T11:09:17;96115.88;;;24.12;39.68
72395;BME280;60384;48.152;11.614;2023-10-09T11:12:22;96114.03;;;24.22;39.15
72395;BME280;60384;48.152;11.614;2023-10-09T11:15:30;96112.88;;;24.50;38.79
72395;BME280;60384;48.152;11.614;2023-10-09T11:18:39;96108.47;;;25.12;37.71
72395;BME280;60384;48.152;11.614;2023-10-09T11:21:43;96102.03;;;25.84;36.83
72395;BME280;60384;48.152;11.614;2023-10-09T11:24:47;96099.66;;;26.82;36.18
72395;BME280;60384;48.152;11.614;2023-10-09T11:28:00;96094.00;;;27.62;35.59
72395;BME280;60384;48.152;11.614;2023-10-09T11:31:23;96096.63;;;27.77;35.39
72395;BME280;60384;48.152;11.614;2023-10-09T11:34:23;96089.72;;;27.46;35.33
72395;BME280;60384;48.152;11.614;2023-10-09T11:37:31;96084.00;;;27.03;35.75
72395;BME280;60384;48.152;11.614;2023-10-09T11:40:40;96092.06;;;26.64;36.27
72395;BME280;60384;48.152;11.614;2023-10-09T11:44:04;96090.22;;;26.44;36.29
72395;BME280;60384;48.152;11.614;2023-10-09T11:47:06;96091.34;;;26.28;36.04
72395;BME280;60384;48.152;11.614;2023-10-09T11:50:39;96080.69;;;26.21;36.27
72395;BME280;60384;48.152;11.614;2023-10-09T11:53:44;96094.91;;;26.03;35.67
72395;BME280;60384;48.152;11.614;2023-10-09T11:56:47;96087.56;;;25.88;35.74
72395;BME280;60384;48.152;11.614;2023-10-09T11:59:49;96082.66;;;25.60;36.02
72395;BME280;60384;48.152;11.614;2023-10-09T12:02:52;96082.34;;;25.36;36.26
72395;BME280;60384;48.152;11.614;2023-10-09T12:05:55;96082.63;;;25.24;36.49
72395;BME280;60384;48.152;11.614;2023-10-09T12:08:56;96086.97;;;25.31;36.43
72395;BME280;60384;48.152;11.614;2023-10-09T12:12:00;96085.88;;;25.32;36.40
72395;BME280;60384;48.152;11.614;2023-10-09T12:15:02;96088.34;;;25.23;36.52
72395;BME280;60384;48.152;11.614;2023-10-09T12:18:06;96090.47;;;25.11;36.45
72395;BME280;60384;48.152;11.614;2023-10-09T12:21:14;96083.09;;;24.96;36.53
72395;BME280;60384;48.152;11.614;2023-10-09T12:24:17;96098.31;;;24.87;36.52
72395;BME280;60384;48.152;11.614;2023-10-09T12:27:20;96081.66;;;24.78;36.60
72395;BME280;60384;48.152;11.614;2023-10-09T12:30:22;96083.25;;;24.69;36.62
72395;BME280;60384;48.152;11.614;2023-10-09T12:33:28;96083.50;;;24.63;36.70
72395;BME280;60384;48.152;11.614;2023-10-09T12:36:30;96086.47;;;24.56;36.94
72395;BME280;60384;48.152;11.614;2023-10-09T12:39:37;96088.88;;;24.47;36.62
72395;BME280;60384;48.152;11.614;2023-10-09T12:42:41;96092.34;;;24.38;36.63
72395;BME280;60384;48.152;11.614;2023-10-09T12:45:46;96098.59;;;24.28;36.53
72395;BME280;60384;48.152;11.614;2023-10-09T12:48:48;96097.13;;;24.20;36.75
72395;BME280;60384;48.152;11.614;2023-10-09T12:51:49;96097.38;;;24.14;36.65
72395;BME280;60384;48.152;11.614;2023-10-09T12:54:51;96110.69;;;24.10;36.85
72395;BME280;60384;48.152;11.614;2023-10-09T12:57:54;96108.19;;;24.04;36.84
72395;BME280;60384;48.152;11.614;2023-10-09T13:01:00;96100.00;;;23.99;36.88
72395;BME280;60384;48.152;11.614;2023-10-09T13:04:09;96104.91;;;23.97;36.82
72395;BME280;60384;48.152;11.614;2023-10-09T13:07:14;96101.56;;;23.89;37.00
72395;BME280;60384;48.152;11.614;2023-10-09T13:10:23;96099.63;;;23.85;36.54
72395;BME280;60384;48.152;11.614;2023-10-09T13:13:26;96102.59;;;23.83;36.82
72395;BME280;60384;48.152;11.614;2023-10-09T13:16:39;96102.31;;;23.80;37.16
72395;BME280;60384;48.152;11.614;2023-10-09T13:19:41;96110.50;;;23.80;37.01
72395;BME280;60384;48.152;11.614;2023-10-09T13:22:44;96110.75;;;23.78;37.27
72395;BME280;60384;48.152;11.614;2023-10-09T13:25:46;96108.28;;;23.77;36.92
72395;BME280;60384;48.152;11.614;2023-10-09T13:28:50;96104.44;;;23.73;37.07
72395;BME280;60384;48.152;11.614;2023-10-09T13:31:51;96107.16;;;23.73;37.02
72395;BME280;60384;48.152;11.614;2023-10-09T13:34:58;96110.94;;;23.72;37.40
72395;BME280;60384;48.152;11.614;2023-10-09T13:38:03;96108.75;;;23.69;37.24
72395;BME280;60384;48.152;11.614;2023-10-09T13:41:08;96114.69;;;23.66;37.15
72395;BME280;60384;48.152;11.614;2023-10-09T13:44:14;96112.78;;;23.61;37.24
72395;BME280;60384;48.152;11.614;2023-10-09T13:47:16;96103.50;;;23.57;37.45
72395;BME280;60384;48.152;11.614;2023-10-09T13:50:22;96096.94;;;23.53;37.35
72395;BME280;60384;48.152;11.614;2023-10-09T13:53:25;96128.13;;;23.50;37.74
72395;BME280;60384;48.152;11.614;2023-10-09T13:56:27;96121.03;;;23.44;37.54
72395;BME280;60384;48.152;11.614;2023-10-09T13:59:30;96114.78;;;23.17;37.85
72395;BME280;60384;48.152;11.614;2023-10-09T14:02:32;96124.75;;;22.84;38.74
72395;BME280;60384;48.152;11.614;2023-10-09T14:05:34;96131.09;;;22.51;39.23
72395;BME280;60384;48.152;11.614;2023-10-09T14:08:52;96112.19;;;22.18;39.72
72395;BME280;60384;48.152;11.614;2023-10-09T14:11:56;96073.00;;;21.92;39.79
72395;BME280;60384;48.152;11.614;2023-10-09T14:15:08;96066.53;;;21.76;40.00
72395;BME280;60384;48.152;11.614;2023-10-09T14:18:17;95993.16;;;21.28;40.16
72395;BME280;60384;48.152;11.614;2023-10-09T14:21:19;96074.34;;;21.73;40.18
72395;BME280;60384;48.152;11.614;2023-10-09T14:24:20;96047.78;;;21.75;40.09
72395;BME280;60384;48.152;11.614;2023-10-09T14:27:26;96038.34;;;21.77;40.11
72395;BME280;60384;48.152;11.614;2023-10-09T14:30:31;96055.53;;;21.83;39.96
72395;BME280;60384;48.152;11.614;2023-10-09T14:33:36;96056.41;;;21.89;39.93
72395;BME280;60384;48.152;11.614;2023-10-09T14:36:40;96043.16;;;21.92;39.74
72395;BME280;60384;48.152;11.614;2023-10-09T14:39:44;96038.63;;;21.98;39.93
72395;BME280;60384;48.152;11.614;2023-10-09T14:42:48;96040.34;;;22.04;39.49
72395;BME280;60384;48.152;11.614;2023-10-09T14:45:54;96024.41;;;22.07;39.77
72395;BME280;60384;48.152;11.614;2023-10-09T14:48:55;96035.34;;;22.12;39.78
72395;BME280;60384;48.152;11.614;2023-10-09T14:51:57;96042.91;;;22.10;40.04
72395;BME280;60384;48.152;11.614;2023-10-09T14:54:59;96050.13;;;22.05;40.17
72395;BME280;60384;48.152;11.614;2023-10-09T14:58:01;96052.03;;;22.04;40.17
72395;BME280;60384;48.152;11.614;2023-10-09T15:01:11;96058.56;;;22.03;39.77
72395;BME280;60384;48.152;11.614;2023-10-09T15:04:15;96060.69;;;22.01;40.23
72395;BME280;60384;48.152;11.614;2023-10-09T15:07:17;96065.88;;;22.03;39.96
72395;BME280;60384;48.152;11.614;2023-10-09T15:10:21;96062.06;;;22.04;40.04
72395;BME280;60384;48.152;11.614;2023-10-09T15:13:24;96058.56;;;22.03;40.12
72395;BME280;60384;48.152;11.614;2023-10-09T15:16:29;96066.94;;;22.02;40.05
72395;BME280;60384;48.152;11.614;2023-10-09T15:19:32;96067.75;;;22.02;40.25
72395;BME280;60384;48.152;11.614;2023-10-09T15:22:33;96076.72;;;22.03;40.34
72395;BME280;60384;48.152;11.614;2023-10-09T15:25:36;96078.34;;;22.04;40.21
72395;BME280;60384;48.152;11.614;2023-10-09T15:28:39;96079.44;;;22.03;40.31
72395;BME280;60384;48.152;11.614;2023-10-09T15:31:42;96064.69;;;21.99;40.37
72395;BME280;60384;48.152;11.614;2023-10-09T15:34:47;96057.63;;;21.98;40.48
72395;BME280;60384;48.152;11.614;2023-10-09T15:37:48;96053.28;;;21.97;40.15
72395;BME280;60384;48.152;11.614;2023-10-09T15:40:52;96039.97;;;21.95;40.17
72395;BME280;60384;48.152;11.614;2023-10-09T15:43:54;96021.22;;;21.94;40.50
72395;BME280;60384;48.152;11.614;2023-10-09T15:46:58;96026.06;;;21.92;40.39
72395;BME280;60384;48.152;11.614;2023-10-09T15:50:00;96025.50;;;21.90;40.50
72395;BME280;60384;48.152;11.614;2023-10-09T15:53:03;96030.34;;;21.88;40.53
72395;BME280;60384;48.152;11.614;2023-10-09T15:56:06;96024.91;;;21.88;40.38
72395;BME280;60384;48.152;11.614;2023-10-09T15:59:08;96011.63;;;21.86;40.12
72395;BME280;60384;48.152;11.614;2023-10-09T16:02:13;96011.63;;;21.86;40.33
72395;BME280;60384;48.152;11.614;2023-10-09T16:05:15;96007.28;;;21.85;40.61
72395;BME280;60384;48.152;11.614;2023-10-09T16:08:18;96006.72;;;21.83;40.62
72395;BME280;60384;48.152;11.614;2023-10-09T16:11:23;96000.72;;;21.81;40.47
72395;BME280;60384;48.152;11.614;2023-10-09T16:14:25;95996.63;;;21.78;40.22
72395;BME280;60384;48.152;11.614;2023-10-09T16:17:28;96010.41;;;21.77;40.64
72395;BME280;60384;48.152;11.614;2023-10-09T16:20:30;96024.22;;;21.75;40.33
72395;BME280;60384;48.152;11.614;2023-10-09T16:23:32;96021.19;;;21.72;40.68